sensor_id;sensor_type;location;lat;lon;timestamp;pressure;altitude;pressure_sealevel;temperature;humidity
73671;BME280;61968;48.178;11.566;2023-09-12T00:00:56;95532.06;;;22.70;38.24
73671;BME280;61968;48.178;11.566;2023-09-12T00:03:23;95536.91;;;22.59;38.59
73671;BME280;61968;48.178;11.566;2023-09-12T00:05:53;95527.84;;;22.55;38.65
73671;BME280;61968;48.178;11.566;2023-09-12T00:08:19;95529.47;;;22.56;38.49
73671;BME280;61968;48.178;11.566;2023-09-12T00:10:46;95524.38;;;22.55;38.91
73671;BME280;61968;48.178;11.566;2023-09-12T00:13:12;95517.06;;;22.55;38.64
73671;BME280;61968;48.178;11.566;2023-09-12T00:15:40;95518.31;;;22.49;38.91
73671;BME280;61968;48.178;11.566;2023-09-12T00:18:07;95520.97;;;22.40;38.91
73671;BME280;61968;48.178;11.566;2023-09-12T00:20:33;95517.50;;;22.40;39.45
73671;BME280;61968;48.178;11.566;2023-09-12T00:23:00;95520.81;;;22.37;39.00
73671;BME280;61968;48.178;11.566;2023-09-12T00:25:26;95521.44;;;22.34;39.36
73671;BME280;61968;48.178;11.566;2023-09-12T00:27:53;95519.06;;;22.32;39.39
73671;BME280;61968;48.178;11.566;2023-09-12T00:30:19;95517.16;;;22.33;39.19
73671;BME280;61968;48.178;11.566;2023-09-12T00:32:47;95508.56;;;22.22;39.46
73671;BME280;61968;48.178;11.566;2023-09-12T00:35:13;95510.59;;;22.16;39.71
73671;BME280;61968;48.178;11.566;2023-09-12T00:37:40;95511.56;;;22.20;39.63
73671;BME280;61968;48.178;11.566;2023-09-12T00:40:07;95506.50;;;22.19;39.57
73671;BME280;61968;48.178;11.566;2023-09-12T00:42:34;95504.75;;;22.14;39.61
73671;BME280;61968;48.178;11.566;2023-09-12T00:45:00;95501.44;;;22.17;39.71
73671;BME280;61968;48.178;11.566;2023-09-12T00:47:28;95495.25;;;22.17;39.81
73671;BME280;61968;48.178;11.566;2023-09-12T00:49:58;95495.69;;;22.10;39.89
73671;BME280;61968;48.178;11.566;2023-09-12T00:52:26;95502.66;;;22.11;39.54
73671;BME280;61968;48.178;11.566;2023-09-12T00:54:54;95500.88;;;22.07;40.00
73671;BME280;61968;48.178;11.566;2023-09-12T00:57:21;95490.78;;;22.12;39.92
73671;BME280;61968;48.178;11.566;2023-09-12T00:59:47;95494.22;;;22.04;39.53
73671;BME280;61968;48.178;11.566;2023-09-12T01:02:14;95489.63;;;22.05;39.60
73671;BME280;61968;48.178;11.566;2023-09-12T01:04:42;95488.38;;;22.02;39.74
73671;BME280;61968;48.178;11.566;2023-09-12T01:07:10;95488.97;;;21.99;39.92
73671;BME280;61968;48.178;11.566;2023-09-12T01:09:37;95489.75;;;21.99;40.07
73671;BME280;61968;48.178;11.566;2023-09-12T01:12:04;95493.84;;;21.97;40.09
73671;BME280;61968;48.178;11.566;2023-09-12T01:14:31;95489.38;;;21.92;39.87
73671;BME280;61968;48.178;11.566;2023-09-12T01:16:58;95489.22;;;21.89;40.12
73671;BME280;61968;48.178;11.566;2023-09-12T01:19:25;95492.53;;;21.86;39.96
73671;BME280;61968;48.178;11.566;2023-09-12T01:22:14;95486.66;;;21.84;39.85
73671;BME280;61968;48.178;11.566;2023-09-12T01:25:13;95487.41;;;21.75;39.95
73671;BME280;61968;48.178;11.566;2023-09-12T01:27:46;95485.34;;;21.72;40.09
73671;BME280;61968;48.178;11.566;2023-09-12T01:30:17;95485.81;;;21.74;40.01
73671;BME280;61968;48.178;11.566;2023-09-12T01:32:43;95489.09;;;21.71;40.35
73671;BME280;61968;48.178;11.566;2023-09-12T01:35:11;95489.47;;;21.79;39.92
73671;BME280;61968;48.178;11.566;2023-09-12T01:37:37;95485.19;;;21.77;39.86
73671;BME280;61968;48.178;11.566;2023-09-12T01:40:05;95482.50;;;21.77;40.01
73671;BME280;61968;48.178;11.566;2023-09-12T01:42:36;95480.56;;;21.69;40.34
73671;BME280;61968;48.178;11.566;2023-09-12T01:45:06;95484.84;;;21.70;40.37
73671;BME280;61968;48.178;11.566;2023-09-12T01:47:34;95484.97;;;21.65;40.50
73671;BME280;61968;48.178;11.566;2023-09-12T01:50:02;95492.19;;;21.56;40.41
73671;BME280;61968;48.178;11.566;2023-09-12T01:52:29;95491.41;;;21.56;40.60
73671;BME280;61968;48.178;11.566;2023-09-12T01:54:56;95493.41;;;21.50;40.89
73671;BME280;61968;48.178;11.566;2023-09-12T01:57:23;95492.50;;;21.54;40.68
73671;BME280;61968;48.178;11.566;2023-09-12T01:59:49;95494.41;;;21.54;40.74
73671;BME280;61968;48.178;11.566;2023-09-12T02:02:18;95500.13;;;21.61;40.64
73671;BME280;61968;48.178;11.566;2023-09-12T02:04:48;95501.72;;;21.62;40.58
73671;BME280;61968;48.178;11.566;2023-09-12T02:07:17;95509.59;;;21.59;40.59
73671;BME280;61968;48.178;11.566;2023-09-12T02:09:43;95503.19;;;21.46;40.60
73671;BME280;61968;48.178;11.566;2023-09-12T02:12:10;95509.78;;;21.40;40.88
73671;BME280;61968;48.178;11.566;2023-09-12T02:14:36;95502.59;;;21.35;40.72
73671;BME280;61968;48.178;11.566;2023-09-12T02:17:03;95509.88;;;21.48;40.65
73671;BME280;61968;48.178;11.566;2023-09-12T02:19:31;95509.19;;;21.43;40.67
73671;BME280;61968;48.178;11.566;2023-09-12T02:21:57;95508.59;;;21.32;40.96
73671;BME280;61968;48.178;11.566;2023-09-12T02:24:24;95506.41;;;21.34;40.83
73671;BME280;61968;48.178;11.566;2023-09-12T02:26:51;95502.31;;;21.37;40.72
73671;BME280;61968;48.178;11.566;2023-09-12T02:29:17;95508.31;;;21.34;40.86
73671;BME280;61968;48.178;11.566;2023-09-12T02:31:44;95508.41;;;21.28;40.97
73671;BME280;61968;48.178;11.566;2023-09-12T02:34:10;95513.34;;;21.35;40.83
73671;BME280;61968;48.178;11.566;2023-09-12T02:36:38;95511.25;;;21.23;41.32
73671;BME280;61968;48.178;11.566;2023-09-12T02:39:05;95511.03;;;21.20;41.30
73671;BME280;61968;48.178;11.566;2023-09-12T02:41:31;95514.81;;;21.19;41.30
73671;BME280;61968;48.178;11.566;2023-09-12T02:43:58;95513.94;;;21.23;40.93
73671;BME280;61968;48.178;11.566;2023-09-12T02:46:24;95510.41;;;21.23;41.04
73671;BME280;61968;48.178;11.566;2023-09-12T02:48:51;95511.84;;;21.20;41.20
73671;BME280;61968;48.178;11.566;2023-09-12T02:51:17;95510.19;;;21.33;40.93
73671;BME280;61968;48.178;11.566;2023-09-12T02:53:45;95513.53;;;21.52;40.51
73671;BME280;61968;48.178;11.566;2023-09-12T02:56:12;95513.69;;;21.56;40.14
73671;BME280;61968;48.178;11.566;2023-09-12T02:58:38;95511.00;;;21.34;40.56
73671;BME280;61968;48.178;11.566;2023-09-12T03:01:05;95511.09;;;21.28;40.42
73671;BME280;61968;48.178;11.566;2023-09-12T03:03:32;95508.03;;;21.21;40.51
73671;BME280;61968;48.178;11.566;2023-09-12T03:05:58;95509.16;;;21.20;40.52
73671;BME280;61968;48.178;11.566;2023-09-12T03:08:25;95506.47;;;21.20;40.24
73671;BME280;61968;48.178;11.566;2023-09-12T03:10:54;95513.53;;;21.16;40.14
73671;BME280;61968;48.178;11.566;2023-09-12T03:13:23;95513.97;;;21.32;39.88
73671;BME280;61968;48.178;11.566;2023-09-12T03:15:49;95508.47;;;21.37;39.78
73671;BME280;61968;48.178;11.566;2023-09-12T03:18:16;95510.88;;;21.39;39.60
73671;BME280;61968;48.178;11.566;2023-09-12T03:20:42;95505.25;;;21.26;39.73
73671;BME280;61968;48.178;11.566;2023-09-12T03:23:09;95505.03;;;21.23;39.88
73671;BME280;61968;48.178;11.566;2023-09-12T03:25:36;95498.44;;;21.29;39.44
73671;BME280;61968;48.178;11.566;2023-09-12T03:28:05;95501.69;;;21.17;39.67
73671;BME280;61968;48.178;11.566;2023-09-12T03:30:33;95496.25;;;21.31;39.36
73671;BME280;61968;48.178;11.566;2023-09-12T03:32:59;95505.53;;;21.25;39.49
73671;BME280;61968;48.178;11.566;2023-09-12T03:35:26;95510.19;;;21.33;39.31
73671;BME280;61968;48.178;11.566;2023-09-12T03:37:53;95509.16;;;21.20;39.41
73671;BME280;61968;48.178;11.566;2023-09-12T03:40:19;95499.31;;;21.16;39.36
73671;BME280;61968;48.178;11.566;2023-09-12T03:42:46;95500.84;;;21.08;39.65
73671;BME280;61968;48.178;11.566;2023-09-12T03:45:14;95502.09;;;21.11;39.46
73671;BME280;61968;48.178;11.566;2023-09-12T03:47:40;95504.69;;;21.16;39.28
73671;BME280;61968;48.178;11.566;2023-09-12T03:50:08;95508.66;;;21.18;38.83
73671;BME280;61968;48.178;11.566;2023-09-12T03:52:34;95498.31;;;21.12;39.29
73671;BME280;61968;48.178;11.566;2023-09-12T03:55:01;95505.59;;;21.11;39.25
73671;BME280;61968;48.178;11.566;2023-09-12T03:57:27;95506.69;;;21.10;39.31
73671;BME280;61968;48.178;11.566;2023-09-12T03:59:54;95507.38;;;21.02;39.57
73671;BME280;61968;48.178;11.566;2023-09-12T04:02:22;95510.41;;;21.00;39.45
73671;BME280;61968;48.178;11.566;2023-09-12T04:04:48;95507.22;;;20.98;39.50
73671;BME280;61968;48.178;11.566;2023-09-12T04:07:15;95511.78;;;20.98;39.26
73671;BME280;61968;48.178;11.566;2023-09-12T04:09:41;95511.50;;;20.99;39.52
73671;BME280;61968;48.178;11.566;2023-09-12T04:12:08;95506.69;;;21.10;41.07
73671;BME280;61968;48.178;11.566;2023-09-12T04:14:34;95504.31;;;21.08;41.39
73671;BME280;61968;48.178;11.566;2023-09-12T04:17:01;95508.03;;;21.21;40.01
73671;BME280;61968;48.178;11.566;2023-09-12T04:19:30;95514.13;;;21.13;39.58
73671;BME280;61968;48.178;11.566;2023-09-12T04:21:56;95517.28;;;20.93;40.82
73671;BME280;61968;48.178;11.566;2023-09-12T04:24:23;95524.81;;;21.04;40.81
73671;BME280;61968;48.178;11.566;2023-09-12T04:26:50;95521.03;;;21.05;40.49
73671;BME280;61968;48.178;11.566;2023-09-12T04:29:16;95517.25;;;21.06;40.87
73671;BME280;61968;48.178;11.566;2023-09-12T04:31:43;95512.06;;;21.10;40.75
73671;BME280;61968;48.178;11.566;2023-09-12T04:34:09;95509.25;;;21.15;40.66
73671;BME280;61968;48.178;11.566;2023-09-12T04:36:37;95518.63;;;21.18;40.47
73671;BME280;61968;48.178;11.566;2023-09-12T04:39:04;95513.72;;;21.20;40.11
73671;BME280;61968;48.178;11.566;2023-09-12T04:41:31;95516.38;;;21.34;39.77
73671;BME280;61968;48.178;11.566;2023-09-12T04:43:57;95511.84;;;21.20;40.31
73671;BME280;61968;48.178;11.566;2023-09-12T04:46:26;95510.63;;;21.26;39.81
73671;BME280;61968;48.178;11.566;2023-09-12T04:48:52;95517.22;;;21.20;39.70
73671;BME280;61968;48.178;11.566;2023-09-12T04:51:19;95508.66;;;21.18;39.78
73671;BME280;61968;48.178;11.566;2023-09-12T04:53:47;95501.69;;;21.17;39.82
73671;BME280;61968;48.178;11.566;2023-09-12T04:56:17;95505.09;;;21.09;40.02
73671;BME280;61968;48.178;11.566;2023-09-12T04:58:43;95511.34;;;21.18;39.53
73671;BME280;61968;48.178;11.566;2023-09-12T05:01:10;95510.63;;;21.26;39.46
73671;BME280;61968;48.178;11.566;2023-09-12T05:03:37;95512.81;;;21.24;39.38
73671;BME280;61968;48.178;11.566;2023-09-12T05:06:03;95507.44;;;21.24;38.32
73671;BME280;61968;48.178;11.566;2023-09-12T05:08:30;95519.69;;;21.17;38.04
73671;BME280;61968;48.178;11.566;2023-09-12T05:10:58;95519.84;;;20.98;38.55
73671;BME280;61968;48.178;11.566;2023-09-12T05:13:24;95518.09;;;20.93;38.58
73671;BME280;61968;48.178;11.566;2023-09-12T05:15:51;95518.28;;;20.83;38.79
73671;BME280;61968;48.178;11.566;2023-09-12T05:18:17;95516.09;;;20.71;38.97
73671;BME280;61968;48.178;11.566;2023-09-12T05:20:44;95528.34;;;20.63;39.13
73671;BME280;61968;48.178;11.566;2023-09-12T05:23:10;95526.06;;;20.57;39.22
73671;BME280;61968;48.178;11.566;2023-09-12T05:25:37;95534.59;;;20.59;39.11
73671;BME280;61968;48.178;11.566;2023-09-12T05:28:05;95525.47;;;20.60;39.27
73671;BME280;61968;48.178;11.566;2023-09-12T05:30:32;95534.22;;;20.52;39.27
73671;BME280;61968;48.178;11.566;2023-09-12T05:32:59;95531.81;;;20.50;39.15
73671;BME280;61968;48.178;11.566;2023-09-12T05:35:25;95528.53;;;20.39;39.33
73671;BME280;61968;48.178;11.566;2023-09-12T05:37:54;95529.66;;;20.38;39.58
73671;BME280;61968;48.178;11.566;2023-09-12T05:40:20;95533.91;;;20.39;39.35
73671;BME280;61968;48.178;11.566;2023-09-12T05:42:47;95531.41;;;20.29;39.57
73671;BME280;61968;48.178;11.566;2023-09-12T05:45:15;95532.00;;;20.26;39.45
73671;BME280;61968;48.178;11.566;2023-09-12T05:47:41;95536.41;;;20.36;39.49
73671;BME280;61968;48.178;11.566;2023-09-12T05:50:08;95536.78;;;20.43;39.53
73671;BME280;61968;48.178;11.566;2023-09-12T05:52:35;95540.00;;;20.45;39.45
73671;BME280;61968;48.178;11.566;2023-09-12T05:55:02;95547.53;;;20.43;39.32
73671;BME280;61968;48.178;11.566;2023-09-12T05:57:29;95541.97;;;20.39;39.50
73671;BME280;61968;48.178;11.566;2023-09-12T05:59:58;95538.78;;;20.37;39.48
73671;BME280;61968;48.178;11.566;2023-09-12T06:02:27;95541.19;;;20.39;39.60
73671;BME280;61968;48.178;11.566;2023-09-12T06:04:54;95540.78;;;20.46;39.54
73671;BME280;61968;48.178;11.566;2023-09-12T06:07:20;95550.22;;;20.43;39.47
73671;BME280;61968;48.178;11.566;2023-09-12T06:09:47;95552.31;;;20.32;39.43
73671;BME280;61968;48.178;11.566;2023-09-12T06:12:14;95549.72;;;20.27;39.87
73671;BME280;61968;48.178;11.566;2023-09-12T06:14:40;95545.66;;;20.30;39.79
73671;BME280;61968;48.178;11.566;2023-09-12T06:17:07;95546.94;;;20.46;39.65
73671;BME280;61968;48.178;11.566;2023-09-12T06:19:34;95555.09;;;20.55;39.72
73671;BME280;61968;48.178;11.566;2023-09-12T06:22:01;95553.00;;;20.52;39.66
73671;BME280;61968;48.178;11.566;2023-09-12T06:24:27;95557.19;;;20.58;39.65
73671;BME280;61968;48.178;11.566;2023-09-12T06:26:54;95544.16;;;20.51;39.74
73671;BME280;61968;48.178;11.566;2023-09-12T06:29:20;95552.50;;;20.50;39.76
73671;BME280;61968;48.178;11.566;2023-09-12T06:31:47;95543.97;;;20.48;39.69
73671;BME280;61968;48.178;11.566;2023-09-12T06:34:13;95552.31;;;20.46;39.67
73671;BME280;61968;48.178;11.566;2023-09-12T06:36:41;95556.28;;;20.49;39.98
73671;BME280;61968;48.178;11.566;2023-09-12T06:39:10;95558.88;;;20.54;39.59
73671;BME280;61968;48.178;11.566;2023-09-12T06:41:37;95551.31;;;20.56;39.68
73671;BME280;61968;48.178;11.566;2023-09-12T06:44:03;95558.38;;;20.52;39.95
73671;BME280;61968;48.178;11.566;2023-09-12T06:46:30;95559.50;;;20.51;39.90
73671;BME280;61968;48.178;11.566;2023-09-12T06:49:01;95555.59;;;20.57;39.68
73671;BME280;61968;48.178;11.566;2023-09-12T06:51:27;95555.81;;;20.60;39.74
73671;BME280;61968;48.178;11.566;2023-09-12T06:53:55;95562.94;;;20.65;39.70
73671;BME280;61968;48.178;11.566;2023-09-12T06:56:22;95560.78;;;20.67;39.71
73671;BME280;61968;48.178;11.566;2023-09-12T06:58:48;95559.28;;;20.75;39.63
73671;BME280;61968;48.178;11.566;2023-09-12T07:01:14;95557.28;;;20.80;39.38
73671;BME280;61968;48.178;11.566;2023-09-12T07:03:41;95561.28;;;20.83;39.43
73671;BME280;61968;48.178;11.566;2023-09-12T07:06:07;95556.81;;;20.78;39.33
73671;BME280;61968;48.178;11.566;2023-09-12T07:08:34;95560.28;;;20.79;39.42
73671;BME280;61968;48.178;11.566;2023-09-12T07:11:04;95564.75;;;20.83;39.05
73671;BME280;61968;48.178;11.566;2023-09-12T07:13:31;95567.25;;;20.94;38.98
73671;BME280;61968;48.178;11.566;2023-09-12T07:15:58;95570.63;;;20.85;39.03
73671;BME280;61968;48.178;11.566;2023-09-12T07:18:28;95570.53;;;20.91;39.09
73671;BME280;61968;48.178;11.566;2023-09-12T07:20:57;95574.41;;;20.98;38.94
73671;BME280;61968;48.178;11.566;2023-09-12T07:23:24;95573.19;;;21.04;39.05
73671;BME280;61968;48.178;11.566;2023-09-12T07:25:50;95571.19;;;21.10;39.13
73671;BME280;61968;48.178;11.566;2023-09-12T07:28:19;95570.78;;;21.17;38.86
73671;BME280;61968;48.178;11.566;2023-09-12T07:30:46;95571.66;;;21.26;39.01
73671;BME280;61968;48.178;11.566;2023-09-12T07:33:12;95573.19;;;21.18;39.32
73671;BME280;61968;48.178;11.566;2023-09-12T07:35:39;95575.81;;;21.32;39.28
73671;BME280;61968;48.178;11.566;2023-09-12T07:38:06;95571.72;;;21.35;38.82
73671;BME280;61968;48.178;11.566;2023-09-12T07:40:32;95571.47;;;21.22;38.99
73671;BME280;61968;48.178;11.566;2023-09-12T07:42:59;95573.47;;;21.17;38.87
73671;BME280;61968;48.178;11.566;2023-09-12T07:45:26;95568.16;;;21.25;38.67
73671;BME280;61968;48.178;11.566;2023-09-12T07:47:54;95575.94;;;21.41;38.73
73671;BME280;61968;48.178;11.566;2023-09-12T07:50:21;95571.31;;;21.55;38.65
73671;BME280;61968;48.178;11.566;2023-09-12T07:52:47;95575.47;;;21.61;38.41
73671;BME280;61968;48.178;11.566;2023-09-12T07:55:14;95579.88;;;21.57;38.80
73671;BME280;61968;48.178;11.566;2023-09-12T07:57:40;95578.03;;;21.66;38.49
73671;BME280;61968;48.178;11.566;2023-09-12T08:00:09;95577.59;;;21.73;38.02
73671;BME280;61968;48.178;11.566;2023-09-12T08:02:37;95586.72;;;21.86;38.11
73671;BME280;61968;48.178;11.566;2023-09-12T08:05:04;95582.94;;;21.87;37.74
73671;BME280;61968;48.178;11.566;2023-09-12T08:07:31;95585.50;;;21.92;37.60
73671;BME280;61968;48.178;11.566;2023-09-12T08:09:58;95584.84;;;22.09;37.15
73671;BME280;61968;48.178;11.566;2023-09-12T08:12:26;95585.63;;;22.09;36.98
73671;BME280;61968;48.178;11.566;2023-09-12T08:14:53;95582.06;;;22.00;37.57
73671;BME280;61968;48.178;11.566;2023-09-12T08:17:19;95580.69;;;22.03;37.56
73671;BME280;61968;48.178;11.566;2023-09-12T08:19:47;95582.00;;;22.14;37.78
73671;BME280;61968;48.178;11.566;2023-09-12T08:22:14;95583.00;;;22.18;37.22
73671;BME280;61968;48.178;11.566;2023-09-12T08:24:41;95577.50;;;22.32;37.00
73671;BME280;61968;48.178;11.566;2023-09-12T08:27:07;95579.47;;;22.40;36.51
73671;BME280;61968;48.178;11.566;2023-09-12T08:29:35;95580.41;;;22.44;36.56
73671;BME280;61968;48.178;11.566;2023-09-12T08:32:02;95581.69;;;22.47;36.30
73671;BME280;61968;48.178;11.566;2023-09-12T08:34:28;95577.59;;;22.49;36.49
73671;BME280;61968;48.178;11.566;2023-09-12T08:36:56;95585.72;;;22.58;36.17
73671;BME280;61968;48.178;11.566;2023-09-12T08:39:24;95586.91;;;22.65;36.15
73671;BME280;61968;48.178;11.566;2023-09-12T08:41:51;95584.53;;;22.73;35.72
73671;BME280;61968;48.178;11.566;2023-09-12T08:44:19;95583.44;;;22.82;35.60
73671;BME280;61968;48.178;11.566;2023-09-12T08:46:46;95584.25;;;22.83;35.29
73671;BME280;61968;48.178;11.566;2023-09-12T08:49:14;95579.00;;;22.78;35.41
73671;BME280;61968;48.178;11.566;2023-09-12T08:51:40;95579.00;;;22.78;35.84
73671;BME280;61968;48.178;11.566;2023-09-12T08:54:08;95572.38;;;22.84;35.87
73671;BME280;61968;48.178;11.566;2023-09-12T08:56:37;95569.84;;;22.87;35.50
73671;BME280;61968;48.178;11.566;2023-09-12T08:59:05;95573.00;;;22.98;35.39
73671;BME280;61968;48.178;11.566;2023-09-12T09:01:33;95581.28;;;23.10;35.21
73671;BME280;61968;48.178;11.566;2023-09-12T09:04:02;95571.31;;;23.11;34.74
73671;BME280;61968;48.178;11.566;2023-09-12T09:06:30;95574.81;;;23.11;35.37
73671;BME280;61968;48.178;11.566;2023-09-12T09:08:57;95574.34;;;23.18;34.99
73671;BME280;61968;48.178;11.566;2023-09-12T09:11:26;95576.72;;;23.11;35.29
73671;BME280;61968;48.178;11.566;2023-09-12T09:13:54;95574.47;;;23.13;34.96
73671;BME280;61968;48.178;11.566;2023-09-12T09:16:22;95572.31;;;23.24;35.41
73671;BME280;61968;48.178;11.566;2023-09-12T09:18:51;95568.34;;;23.30;34.94
73671;BME280;61968;48.178;11.566;2023-09-12T09:21:18;95566.13;;;23.32;34.70
73671;BME280;61968;48.178;11.566;2023-09-12T09:23:45;95568.81;;;23.41;34.61
73671;BME280;61968;48.178;11.566;2023-09-12T09:26:12;95567.56;;;23.55;34.67
73671;BME280;61968;48.178;11.566;2023-09-12T09:28:40;95562.00;;;23.69;34.45
73671;BME280;61968;48.178;11.566;2023-09-12T09:31:10;95555.47;;;23.70;34.21
73671;BME280;61968;48.178;11.566;2023-09-12T09:33:37;95549.94;;;23.75;33.88
73671;BME280;61968;48.178;11.566;2023-09-12T09:36:07;95559.78;;;23.80;34.64
73671;BME280;61968;48.178;11.566;2023-09-12T09:38:34;95554.22;;;23.85;33.52
73671;BME280;61968;48.178;11.566;2023-09-12T09:41:04;95551.53;;;23.85;33.59
73671;BME280;61968;48.178;11.566;2023-09-12T09:43:31;95546.75;;;23.82;33.35
73671;BME280;61968;48.178;11.566;2023-09-12T09:45:59;95540.88;;;23.89;33.55
73671;BME280;61968;48.178;11.566;2023-09-12T09:48:26;95541.50;;;23.86;33.68
73671;BME280;61968;48.178;11.566;2023-09-12T09:50:53;95542.13;;;24.00;33.94
73671;BME280;61968;48.178;11.566;2023-09-12T09:53:26;95541.19;;;24.05;33.29
73671;BME280;61968;48.178;11.566;2023-09-12T09:55:52;95547.50;;;24.09;32.88
73671;BME280;61968;48.178;11.566;2023-09-12T09:58:23;95538.94;;;23.98;32.74
73671;BME280;61968;48.178;11.566;2023-09-12T10:00:50;95545.31;;;24.02;32.37
73671;BME280;61968;48.178;11.566;2023-09-12T10:03:20;95546.06;;;24.11;32.12
73671;BME280;61968;48.178;11.566;2023-09-12T10:05:50;95537.00;;;24.16;32.46
73671;BME280;61968;48.178;11.566;2023-09-12T10:08:18;95538.25;;;24.18;32.59
73671;BME280;61968;48.178;11.566;2023-09-12T10:10:47;95529.66;;;24.25;32.76
73671;BME280;61968;48.178;11.566;2023-09-12T10:13:14;95537.75;;;24.25;33.27
73671;BME280;61968;48.178;11.566;2023-09-12T10:15:43;95535.38;;;24.23;33.03
73671;BME280;61968;48.178;11.566;2023-09-12T10:18:14;95538.38;;;24.31;31.98
73671;BME280;61968;48.178;11.566;2023-09-12T10:20:59;95535.53;;;24.27;31.75
73671;BME280;61968;48.178;11.566;2023-09-12T10:23:34;95527.44;;;24.27;30.58
73671;BME280;61968;48.178;11.566;2023-09-12T10:26:08;95533.22;;;24.08;30.81
73671;BME280;61968;48.178;11.566;2023-09-12T10:28:35;95531.28;;;24.17;31.15
73671;BME280;61968;48.178;11.566;2023-09-12T10:31:04;95518.53;;;24.26;31.23
73671;BME280;61968;48.178;11.566;2023-09-12T10:33:31;95527.25;;;24.32;30.95
73671;BME280;61968;48.178;11.566;2023-09-12T10:35:59;95524.56;;;24.41;31.24
73671;BME280;61968;48.178;11.566;2023-09-12T10:38:26;95521.03;;;24.40;31.58
73671;BME280;61968;48.178;11.566;2023-09-12T10:40:55;95524.56;;;24.41;31.39
73671;BME280;61968;48.178;11.566;2023-09-12T10:43:23;95522.47;;;24.38;30.51
73671;BME280;61968;48.178;11.566;2023-09-12T10:45:51;95515.31;;;24.42;30.32
73671;BME280;61968;48.178;11.566;2023-09-12T10:48:18;95514.53;;;24.41;30.21
73671;BME280;61968;48.178;11.566;2023-09-12T10:50:45;95523.25;;;24.47;30.99
73671;BME280;61968;48.178;11.566;2023-09-12T10:53:15;95512.00;;;24.27;30.58
73671;BME280;61968;48.178;11.566;2023-09-12T10:55:58;95523.28;;;24.38;30.93
73671;BME280;61968;48.178;11.566;2023-09-12T10:58:25;95521.50;;;24.42;30.68
73671;BME280;61968;48.178;11.566;2023-09-12T11:01:22;95513.09;;;24.44;29.72
73671;BME280;61968;48.178;11.566;2023-09-12T11:03:49;95516.47;;;24.62;30.25
73671;BME280;61968;48.178;11.566;2023-09-12T11:06:23;95517.22;;;24.71;30.18
73671;BME280;61968;48.178;11.566;2023-09-12T11:09:17;95519.22;;;24.83;30.34
73671;BME280;61968;48.178;11.566;2023-09-12T11:11:46;95515.53;;;24.96;30.10
73671;BME280;61968;48.178;11.566;2023-09-12T11:14:13;95514.81;;;24.78;29.45
73671;BME280;61968;48.178;11.566;2023-09-12T11:16:40;95517.91;;;24.89;29.58
73671;BME280;61968;48.178;11.566;2023-09-12T11:19:15;95514.28;;;24.93;29.95
73671;BME280;61968;48.178;11.566;2023-09-12T11:21:41;95515.97;;;24.98;28.88
73671;BME280;61968;48.178;11.566;2023-09-12T11:24:08;95511.81;;;25.01;29.68
73671;BME280;61968;48.178;11.566;2023-09-12T11:26:52;95511.50;;;25.02;30.76
73671;BME280;61968;48.178;11.566;2023-09-12T11:29:19;95513.34;;;25.10;30.51
73671;BME280;61968;48.178;11.566;2023-09-12T11:31:53;95508.75;;;25.11;29.91
73671;BME280;61968;48.178;11.566;2023-09-12T11:34:24;95505.81;;;25.16;29.33
73671;BME280;61968;48.178;11.566;2023-09-12T11:36:54;95502.00;;;25.17;29.26
73671;BME280;61968;48.178;11.566;2023-09-12T11:39:25;95503.94;;;25.16;28.76
73671;BME280;61968;48.178;11.566;2023-09-12T11:41:53;95516.81;;;25.20;28.91
73671;BME280;61968;48.178;11.566;2023-09-12T11:44:21;95508.47;;;25.25;29.22
73671;BME280;61968;48.178;11.566;2023-09-12T11:46:48;95509.00;;;25.39;28.39
73671;BME280;61968;48.178;11.566;2023-09-12T11:49:16;95506.13;;;25.44;28.62
73671;BME280;61968;48.178;11.566;2023-09-12T11:51:47;95499.38;;;25.50;28.18
73671;BME280;61968;48.178;11.566;2023-09-12T11:54:14;95497.59;;;25.54;28.24
73671;BME280;61968;48.178;11.566;2023-09-12T11:56:41;95494.56;;;25.56;27.78
73671;BME280;61968;48.178;11.566;2023-09-12T11:59:09;95496.44;;;25.55;28.69
73671;BME280;61968;48.178;11.566;2023-09-12T12:01:36;95497.59;;;25.54;28.40
73671;BME280;61968;48.178;11.566;2023-09-12T12:04:03;95490.84;;;25.60;28.58
73671;BME280;61968;48.178;11.566;2023-09-12T12:06:32;95490.53;;;25.62;29.18
73671;BME280;61968;48.178;11.566;2023-09-12T12:09:00;95493.00;;;25.67;29.45
73671;BME280;61968;48.178;11.566;2023-09-12T12:11:29;95490.56;;;25.74;27.58
73671;BME280;61968;48.178;11.566;2023-09-12T12:13:57;95489.06;;;25.77;27.95
73671;BME280;61968;48.178;11.566;2023-09-12T12:16:28;95489.22;;;25.80;28.05
73671;BME280;61968;48.178;11.566;2023-09-12T12:18:54;95486.97;;;25.95;27.83
73671;BME280;61968;48.178;11.566;2023-09-12T12:21:22;95490.63;;;25.99;28.21
73671;BME280;61968;48.178;11.566;2023-09-12T12:23:57;95485.50;;;25.97;27.18
73671;BME280;61968;48.178;11.566;2023-09-12T12:26:24;95479.25;;;26.05;27.88
73671;BME280;61968;48.178;11.566;2023-09-12T12:28:50;95480.50;;;26.20;26.14
73671;BME280;61968;48.178;11.566;2023-09-12T12:31:18;95477.56;;;26.25;26.86
73671;BME280;61968;48.178;11.566;2023-09-12T12:33:49;95475.56;;;26.35;26.84
73671;BME280;61968;48.178;11.566;2023-09-12T12:36:15;95483.22;;;26.45;25.17
73671;BME280;61968;48.178;11.566;2023-09-12T12:38:42;95475.41;;;26.43;26.34
73671;BME280;61968;48.178;11.566;2023-09-12T12:41:12;95466.09;;;26.53;25.73
73671;BME280;61968;48.178;11.566;2023-09-12T12:43:39;95467.19;;;26.52;26.51
73671;BME280;61968;48.178;11.566;2023-09-12T12:46:10;95464.03;;;26.50;26.30
73671;BME280;61968;48.178;11.566;2023-09-12T12:48:37;95465.06;;;26.58;27.05
73671;BME280;61968;48.178;11.566;2023-09-12T12:51:16;95470.56;;;26.61;26.40
73671;BME280;61968;48.178;11.566;2023-09-12T12:53:44;95472.19;;;26.62;25.88